sensor_id;sensor_type;location;lat;lon;timestamp;P1;durP1;ratioP1;P2;durP2;ratioP2
12625;SDS011;6378;42.684;23.372;2023-08-21T00:00:42;10.98;;;9.88;;
12625;SDS011;6378;42.684;23.372;2023-08-21T00:03:07;11.40;;;10.00;;
12625;SDS011;6378;42.684;23.372;2023-08-21T00:05:33;10.27;;;9.27;;
12625;SDS011;6378;42.684;23.372;2023-08-21T00:07:58;10.25;;;9.32;;
12625;SDS011;6378;42.684;23.372;2023-08-21T00:10:23;11.50;;;9.23;;
12625;SDS011;6378;42.684;23.372;2023-08-21T00:12:49;12.38;;;10.38;;
12625;SDS011;6378;42.684;23.372;2023-08-21T00:15:14;10.93;;;9.70;;
12625;SDS011;6378;42.684;23.372;2023-08-21T00:17:39;10.93;;;9.80;;
12625;SDS011;6378;42.684;23.372;2023-08-21T00:20:05;10.25;;;9.25;;
12625;SDS011;6378;42.684;23.372;2023-08-21T00:22:34;10.57;;;9.45;;
12625;SDS011;6378;42.684;23.372;2023-08-21T00:25:00;10.75;;;9.68;;
12625;SDS011;6378;42.684;23.372;2023-08-21T00:27:25;13.27;;;9.57;;
12625;SDS011;6378;42.684;23.372;2023-08-21T00:29:51;10.65;;;9.65;;
12625;SDS011;6378;42.684;23.372;2023-08-21T00:32:16;10.13;;;9.10;;
12625;SDS011;6378;42.684;23.372;2023-08-21T00:34:41;11.50;;;9.50;;
12625;SDS011;6378;42.684;23.372;2023-08-21T00:37:07;11.57;;;9.95;;
12625;SDS011;6378;42.684;23.372;2023-08-21T00:39:32;11.60;;;9.85;;
12625;SDS011;6378;42.684;23.372;2023-08-21T00:41:58;11.82;;;9.88;;
12625;SDS011;6378;42.684;23.372;2023-08-21T00:44:23;11.20;;;10.10;;
12625;SDS011;6378;42.684;23.372;2023-08-21T00:46:48;11.38;;;9.40;;
12625;SDS011;6378;42.684;23.372;2023-08-21T00:49:14;9.93;;;9.02;;
12625;SDS011;6378;42.684;23.372;2023-08-21T00:51:39;11.98;;;10.32;;
12625;SDS011;6378;42.684;23.372;2023-08-21T00:54:05;11.00;;;9.90;;
12625;SDS011;6378;42.684;23.372;2023-08-21T00:56:30;10.80;;;9.40;;
12625;SDS011;6378;42.684;23.372;2023-08-21T00:58:56;10.45;;;9.45;;
12625;SDS011;6378;42.684;23.372;2023-08-21T01:01:23;12.40;;;9.95;;
12625;SDS011;6378;42.684;23.372;2023-08-21T01:03:52;11.30;;;9.48;;
12625;SDS011;6378;42.684;23.372;2023-08-21T01:06:18;11.57;;;9.68;;
12625;SDS011;6378;42.684;23.372;2023-08-21T01:08:50;12.13;;;9.88;;
12625;SDS011;6378;42.684;23.372;2023-08-21T01:11:27;10.98;;;8.98;;
12625;SDS011;6378;42.684;23.372;2023-08-21T01:17:10;12.85;;;9.13;;
12625;SDS011;6378;42.684;23.372;2023-08-21T01:19:40;11.95;;;9.93;;
12625;SDS011;6378;42.684;23.372;2023-08-21T01:22:07;12.45;;;10.07;;
12625;SDS011;6378;42.684;23.372;2023-08-21T01:24:33;13.80;;;9.82;;
12625;SDS011;6378;42.684;23.372;2023-08-21T01:26:59;12.25;;;10.02;;
12625;SDS011;6378;42.684;23.372;2023-08-21T01:29:25;10.50;;;9.45;;
12625;SDS011;6378;42.684;23.372;2023-08-21T01:31:52;10.73;;;9.40;;
12625;SDS011;6378;42.684;23.372;2023-08-21T01:34:26;10.50;;;9.30;;
12625;SDS011;6378;42.684;23.372;2023-08-21T01:36:55;12.57;;;9.98;;
12625;SDS011;6378;42.684;23.372;2023-08-21T01:39:20;13.73;;;9.88;;
12625;SDS011;6378;42.684;23.372;2023-08-21T01:41:47;11.32;;;10.05;;
12625;SDS011;6378;42.684;23.372;2023-08-21T01:44:12;13.50;;;9.75;;
12625;SDS011;6378;42.684;23.372;2023-08-21T01:46:38;12.20;;;9.68;;
12625;SDS011;6378;42.684;23.372;2023-08-21T01:49:03;10.93;;;9.25;;
12625;SDS011;6378;42.684;23.372;2023-08-21T01:51:29;9.95;;;8.95;;
12625;SDS011;6378;42.684;23.372;2023-08-21T01:53:54;13.50;;;9.73;;
12625;SDS011;6378;42.684;23.372;2023-08-21T01:56:19;11.13;;;10.00;;
12625;SDS011;6378;42.684;23.372;2023-08-21T01:58:45;12.13;;;9.95;;
12625;SDS011;6378;42.684;23.372;2023-08-21T02:01:10;10.55;;;9.50;;
12625;SDS011;6378;42.684;23.372;2023-08-21T02:03:35;15.85;;;9.65;;
12625;SDS011;6378;42.684;23.372;2023-08-21T02:06:01;11.13;;;9.50;;
12625;SDS011;6378;42.684;23.372;2023-08-21T02:08:27;11.13;;;9.90;;
12625;SDS011;6378;42.684;23.372;2023-08-21T02:10:57;11.30;;;9.88;;
12625;SDS011;6378;42.684;23.372;2023-08-21T02:13:22;11.38;;;9.55;;
12625;SDS011;6378;42.684;23.372;2023-08-21T02:15:47;10.38;;;9.35;;
12625;SDS011;6378;42.684;23.372;2023-08-21T02:18:13;12.85;;;9.85;;
12625;SDS011;6378;42.684;23.372;2023-08-21T02:20:38;10.35;;;9.35;;
12625;SDS011;6378;42.684;23.372;2023-08-21T02:23:04;11.00;;;9.82;;
12625;SDS011;6378;42.684;23.372;2023-08-21T02:25:30;9.73;;;8.68;;
12625;SDS011;6378;42.684;23.372;2023-08-21T02:27:56;10.45;;;9.35;;
12625;SDS011;6378;42.684;23.372;2023-08-21T02:30:21;11.13;;;9.98;;
12625;SDS011;6378;42.684;23.372;2023-08-21T02:32:50;10.70;;;9.68;;
12625;SDS011;6378;42.684;23.372;2023-08-21T02:35:16;10.25;;;9.25;;
12625;SDS011;6378;42.684;23.372;2023-08-21T02:37:41;10.38;;;9.48;;
12625;SDS011;6378;42.684;23.372;2023-08-21T02:40:06;13.63;;;9.85;;
12625;SDS011;6378;42.684;23.372;2023-08-21T02:42:35;12.15;;;9.63;;
12625;SDS011;6378;42.684;23.372;2023-08-21T02:45:01;10.50;;;9.35;;
12625;SDS011;6378;42.684;23.372;2023-08-21T02:47:29;11.40;;;9.95;;
12625;SDS011;6378;42.684;23.372;2023-08-21T02:49:54;11.50;;;9.57;;
12625;SDS011;6378;42.684;23.372;2023-08-21T02:52:20;11.85;;;9.70;;
12625;SDS011;6378;42.684;23.372;2023-08-21T02:54:45;12.60;;;10.50;;
12625;SDS011;6378;42.684;23.372;2023-08-21T02:57:11;12.60;;;9.52;;
12625;SDS011;6378;42.684;23.372;2023-08-21T02:59:36;11.18;;;9.77;;
12625;SDS011;6378;42.684;23.372;2023-08-21T03:02:02;11.40;;;10.20;;
12625;SDS011;6378;42.684;23.372;2023-08-21T03:04:27;11.57;;;10.38;;
12625;SDS011;6378;42.684;23.372;2023-08-21T03:06:52;11.05;;;9.80;;
12625;SDS011;6378;42.684;23.372;2023-08-21T03:09:18;11.82;;;9.80;;
12625;SDS011;6378;42.684;23.372;2023-08-21T03:11:43;12.57;;;10.70;;
12625;SDS011;6378;42.684;23.372;2023-08-21T03:14:09;11.82;;;10.52;;
12625;SDS011;6378;42.684;23.372;2023-08-21T03:16:34;13.93;;;9.77;;
12625;SDS011;6378;42.684;23.372;2023-08-21T03:18:59;12.07;;;10.68;;
12625;SDS011;6378;42.684;23.372;2023-08-21T03:21:25;14.23;;;11.25;;
12625;SDS011;6378;42.684;23.372;2023-08-21T03:23:53;14.15;;;10.93;;
12625;SDS011;6378;42.684;23.372;2023-08-21T03:26:20;13.95;;;11.23;;
12625;SDS011;6378;42.684;23.372;2023-08-21T03:28:45;14.05;;;11.18;;
12625;SDS011;6378;42.684;23.372;2023-08-21T03:31:11;16.40;;;11.40;;
12625;SDS011;6378;42.684;23.372;2023-08-21T03:33:36;12.43;;;11.13;;
12625;SDS011;6378;42.684;23.372;2023-08-21T03:36:02;12.32;;;10.82;;
12625;SDS011;6378;42.684;23.372;2023-08-21T03:38:27;12.48;;;11.02;;
12625;SDS011;6378;42.684;23.372;2023-08-21T03:40:53;12.10;;;10.23;;
12625;SDS011;6378;42.684;23.372;2023-08-21T03:43:18;13.07;;;10.80;;
12625;SDS011;6378;42.684;23.372;2023-08-21T03:45:43;14.93;;;10.63;;
12625;SDS011;6378;42.684;23.372;2023-08-21T03:48:27;12.65;;;10.60;;
12625;SDS011;6378;42.684;23.372;2023-08-21T03:50:53;12.50;;;10.10;;
12625;SDS011;6378;42.684;23.372;2023-08-21T03:53:18;11.73;;;10.52;;
12625;SDS011;6378;42.684;23.372;2023-08-21T03:55:44;14.90;;;10.48;;
12625;SDS011;6378;42.684;23.372;2023-08-21T03:58:09;11.75;;;10.50;;
12625;SDS011;6378;42.684;23.372;2023-08-21T04:00:35;10.82;;;9.68;;
12625;SDS011;6378;42.684;23.372;2023-08-21T04:03:00;13.02;;;9.50;;
12625;SDS011;6378;42.684;23.372;2023-08-21T04:05:26;10.60;;;9.40;;
12625;SDS011;6378;42.684;23.372;2023-08-21T04:07:51;12.60;;;10.00;;
12625;SDS011;6378;42.684;23.372;2023-08-21T04:10:16;11.93;;;9.38;;
12625;SDS011;6378;42.684;23.372;2023-08-21T04:12:42;10.35;;;9.35;;
12625;SDS011;6378;42.684;23.372;2023-08-21T04:15:08;12.75;;;9.15;;
12625;SDS011;6378;42.684;23.372;2023-08-21T04:17:33;11.80;;;10.32;;
12625;SDS011;6378;42.684;23.372;2023-08-21T04:19:59;9.82;;;8.85;;
12625;SDS011;6378;42.684;23.372;2023-08-21T04:22:24;14.13;;;11.02;;
12625;SDS011;6378;42.684;23.372;2023-08-21T04:24:50;12.18;;;10.23;;
12625;SDS011;6378;42.684;23.372;2023-08-21T04:27:15;17.70;;;13.50;;
12625;SDS011;6378;42.684;23.372;2023-08-21T04:29:40;13.75;;;12.32;;
12625;SDS011;6378;42.684;23.372;2023-08-21T04:32:06;16.45;;;12.95;;
12625;SDS011;6378;42.684;23.372;2023-08-21T04:34:34;31.08;;;25.35;;
12625;SDS011;6378;42.684;23.372;2023-08-21T04:37:00;21.58;;;15.52;;
12625;SDS011;6378;42.684;23.372;2023-08-21T04:39:25;24.20;;;19.27;;
12625;SDS011;6378;42.684;23.372;2023-08-21T04:41:51;24.85;;;21.67;;
12625;SDS011;6378;42.684;23.372;2023-08-21T04:44:16;18.58;;;15.35;;
12625;SDS011;6378;42.684;23.372;2023-08-21T04:46:42;11.80;;;10.57;;
12625;SDS011;6378;42.684;23.372;2023-08-21T04:49:08;16.67;;;14.60;;
12625;SDS011;6378;42.684;23.372;2023-08-21T04:51:33;14.43;;;12.93;;
12625;SDS011;6378;42.684;23.372;2023-08-21T04:53:59;19.13;;;15.50;;
12625;SDS011;6378;42.684;23.372;2023-08-21T04:56:24;16.50;;;12.38;;
12625;SDS011;6378;42.684;23.372;2023-08-21T04:58:51;14.45;;;12.95;;
12625;SDS011;6378;42.684;23.372;2023-08-21T05:01:17;23.05;;;17.75;;
12625;SDS011;6378;42.684;23.372;2023-08-21T05:03:42;18.30;;;13.55;;
12625;SDS011;6378;42.684;23.372;2023-08-21T05:06:07;11.18;;;10.00;;
12625;SDS011;6378;42.684;23.372;2023-08-21T05:08:34;16.35;;;10.93;;
12625;SDS011;6378;42.684;23.372;2023-08-21T05:11:00;13.02;;;9.93;;
12625;SDS011;6378;42.684;23.372;2023-08-21T05:13:26;17.92;;;11.48;;
12625;SDS011;6378;42.684;23.372;2023-08-21T05:15:55;16.38;;;11.73;;
12625;SDS011;6378;42.684;23.372;2023-08-21T05:18:22;12.38;;;10.45;;
12625;SDS011;6378;42.684;23.372;2023-08-21T05:20:48;12.65;;;10.90;;
12625;SDS011;6378;42.684;23.372;2023-08-21T05:23:14;15.05;;;10.30;;
12625;SDS011;6378;42.684;23.372;2023-08-21T05:25:40;14.52;;;11.23;;
12625;SDS011;6378;42.684;23.372;2023-08-21T05:28:06;13.07;;;10.88;;
12625;SDS011;6378;42.684;23.372;2023-08-21T05:30:32;20.67;;;11.18;;
12625;SDS011;6378;42.684;23.372;2023-08-21T05:32:57;19.85;;;11.07;;
12625;SDS011;6378;42.684;23.372;2023-08-21T05:35:23;16.55;;;11.70;;
12625;SDS011;6378;42.684;23.372;2023-08-21T05:37:48;13.73;;;10.57;;
12625;SDS011;6378;42.684;23.372;2023-08-21T05:40:14;12.23;;;10.90;;
12625;SDS011;6378;42.684;23.372;2023-08-21T05:42:39;28.90;;;15.82;;
12625;SDS011;6378;42.684;23.372;2023-08-21T05:45:05;18.38;;;13.10;;
12625;SDS011;6378;42.684;23.372;2023-08-21T05:47:31;18.42;;;11.27;;
12625;SDS011;6378;42.684;23.372;2023-08-21T05:49:56;12.60;;;10.98;;
12625;SDS011;6378;42.684;23.372;2023-08-21T05:52:22;14.38;;;11.45;;
12625;SDS011;6378;42.684;23.372;2023-08-21T05:54:48;14.30;;;10.82;;
12625;SDS011;6378;42.684;23.372;2023-08-21T05:57:13;15.27;;;11.30;;
12625;SDS011;6378;42.684;23.372;2023-08-21T05:59:43;16.10;;;11.68;;
12625;SDS011;6378;42.684;23.372;2023-08-21T06:02:09;13.30;;;11.35;;
12625;SDS011;6378;42.684;23.372;2023-08-21T06:04:35;17.77;;;11.70;;
12625;SDS011;6378;42.684;23.372;2023-08-21T06:07:00;15.48;;;11.15;;
12625;SDS011;6378;42.684;23.372;2023-08-21T06:09:26;13.90;;;11.40;;
12625;SDS011;6378;42.684;23.372;2023-08-21T06:11:54;13.65;;;11.80;;
12625;SDS011;6378;42.684;23.372;2023-08-21T06:14:20;14.80;;;11.40;;
12625;SDS011;6378;42.684;23.372;2023-08-21T06:16:53;13.60;;;12.32;;
12625;SDS011;6378;42.684;23.372;2023-08-21T06:19:18;14.57;;;11.25;;
12625;SDS011;6378;42.684;23.372;2023-08-21T06:21:44;17.23;;;11.85;;
12625;SDS011;6378;42.684;23.372;2023-08-21T06:24:09;13.50;;;11.38;;
12625;SDS011;6378;42.684;23.372;2023-08-21T06:26:35;12.73;;;11.18;;
12625;SDS011;6378;42.684;23.372;2023-08-21T06:29:00;14.55;;;12.05;;
12625;SDS011;6378;42.684;23.372;2023-08-21T06:31:25;12.52;;;10.68;;
12625;SDS011;6378;42.684;23.372;2023-08-21T06:33:51;13.70;;;11.43;;
12625;SDS011;6378;42.684;23.372;2023-08-21T06:36:16;16.45;;;11.48;;
12625;SDS011;6378;42.684;23.372;2023-08-21T06:38:41;14.27;;;11.43;;
12625;SDS011;6378;42.684;23.372;2023-08-21T06:41:07;13.02;;;10.57;;
12625;SDS011;6378;42.684;23.372;2023-08-21T06:43:33;12.50;;;10.60;;
12625;SDS011;6378;42.684;23.372;2023-08-21T06:45:58;12.35;;;10.65;;
12625;SDS011;6378;42.684;23.372;2023-08-21T06:48:23;13.20;;;10.30;;
12625;SDS011;6378;42.684;23.372;2023-08-21T06:50:50;15.82;;;11.18;;
12625;SDS011;6378;42.684;23.372;2023-08-21T06:53:15;17.67;;;10.70;;
12625;SDS011;6378;42.684;23.372;2023-08-21T06:55:41;16.00;;;11.13;;
12625;SDS011;6378;42.684;23.372;2023-08-21T06:58:06;13.82;;;10.23;;
12625;SDS011;6378;42.684;23.372;2023-08-21T07:00:32;11.95;;;10.02;;
12625;SDS011;6378;42.684;23.372;2023-08-21T07:02:57;12.88;;;9.85;;
12625;SDS011;6378;42.684;23.372;2023-08-21T07:05:23;12.55;;;9.18;;
12625;SDS011;6378;42.684;23.372;2023-08-21T07:07:48;13.18;;;9.20;;
12625;SDS011;6378;42.684;23.372;2023-08-21T07:10:13;13.48;;;8.93;;
12625;SDS011;6378;42.684;23.372;2023-08-21T07:12:39;11.65;;;9.70;;
12625;SDS011;6378;42.684;23.372;2023-08-21T07:15:04;13.60;;;9.55;;
12625;SDS011;6378;42.684;23.372;2023-08-21T07:17:30;14.05;;;9.20;;
12625;SDS011;6378;42.684;23.372;2023-08-21T07:19:55;12.95;;;9.35;;
12625;SDS011;6378;42.684;23.372;2023-08-21T07:22:21;13.90;;;9.68;;
12625;SDS011;6378;42.684;23.372;2023-08-21T07:24:46;10.13;;;8.95;;
12625;SDS011;6378;42.684;23.372;2023-08-21T07:27:13;14.02;;;9.07;;
12625;SDS011;6378;42.684;23.372;2023-08-21T07:29:38;11.68;;;9.50;;
12625;SDS011;6378;42.684;23.372;2023-08-21T07:32:03;14.85;;;9.60;;
12625;SDS011;6378;42.684;23.372;2023-08-21T07:34:29;12.63;;;8.77;;
12625;SDS011;6378;42.684;23.372;2023-08-21T07:39:20;13.15;;;9.63;;
12625;SDS011;6378;42.684;23.372;2023-08-21T07:41:45;11.65;;;8.52;;
12625;SDS011;6378;42.684;23.372;2023-08-21T07:44:10;10.15;;;8.57;;
12625;SDS011;6378;42.684;23.372;2023-08-21T07:46:36;11.38;;;8.93;;
12625;SDS011;6378;42.684;23.372;2023-08-21T07:49:01;13.35;;;9.27;;
12625;SDS011;6378;42.684;23.372;2023-08-21T07:51:26;10.98;;;8.15;;
12625;SDS011;6378;42.684;23.372;2023-08-21T07:53:52;10.90;;;8.60;;
12625;SDS011;6378;42.684;23.372;2023-08-21T07:56:17;12.27;;;9.05;;
12625;SDS011;6378;42.684;23.372;2023-08-21T07:58:43;11.98;;;9.80;;
12625;SDS011;6378;42.684;23.372;2023-08-21T08:01:08;11.98;;;9.30;;
12625;SDS011;6378;42.684;23.372;2023-08-21T08:03:33;10.90;;;9.23;;
12625;SDS011;6378;42.684;23.372;2023-08-21T08:05:59;10.32;;;8.73;;
12625;SDS011;6378;42.684;23.372;2023-08-21T08:08:24;14.55;;;8.48;;
12625;SDS011;6378;42.684;23.372;2023-08-21T08:10:50;9.82;;;8.57;;
12625;SDS011;6378;42.684;23.372;2023-08-21T08:13:15;13.32;;;8.07;;
12625;SDS011;6378;42.684;23.372;2023-08-21T08:15:41;10.48;;;7.47;;
12625;SDS011;6378;42.684;23.372;2023-08-21T08:18:10;9.63;;;7.68;;
12625;SDS011;6378;42.684;23.372;2023-08-21T08:20:37;8.23;;;7.43;;
12625;SDS011;6378;42.684;23.372;2023-08-21T08:23:03;10.73;;;7.20;;
12625;SDS011;6378;42.684;23.372;2023-08-21T08:25:29;11.20;;;7.10;;
12625;SDS011;6378;42.684;23.372;2023-08-21T08:27:55;8.02;;;7.22;;
12625;SDS011;6378;42.684;23.372;2023-08-21T08:30:20;9.05;;;7.50;;
12625;SDS011;6378;42.684;23.372;2023-08-21T08:32:45;9.07;;;7.18;;
12625;SDS011;6378;42.684;23.372;2023-08-21T08:35:12;9.43;;;7.55;;
12625;SDS011;6378;42.684;23.372;2023-08-21T08:37:38;8.45;;;6.97;;
12625;SDS011;6378;42.684;23.372;2023-08-21T08:40:04;12.68;;;8.43;;
12625;SDS011;6378;42.684;23.372;2023-08-21T08:42:30;10.00;;;7.95;;
12625;SDS011;6378;42.684;23.372;2023-08-21T08:44:55;10.65;;;7.35;;
12625;SDS011;6378;42.684;23.372;2023-08-21T08:47:24;8.70;;;7.03;;
12625;SDS011;6378;42.684;23.372;2023-08-21T08:49:50;9.20;;;7.35;;
12625;SDS011;6378;42.684;23.372;2023-08-21T08:52:18;11.52;;;6.95;;
12625;SDS011;6378;42.684;23.372;2023-08-21T08:54:44;6.78;;;5.95;;
12625;SDS011;6378;42.684;23.372;2023-08-21T08:57:11;7.55;;;6.80;;
12625;SDS011;6378;42.684;23.372;2023-08-21T08:59:36;10.60;;;7.88;;
12625;SDS011;6378;42.684;23.372;2023-08-21T09:02:02;9.07;;;6.75;;
12625;SDS011;6378;42.684;23.372;2023-08-21T09:04:27;7.68;;;6.88;;
12625;SDS011;6378;42.684;23.372;2023-08-21T09:07:05;8.48;;;6.80;;
12625;SDS011;6378;42.684;23.372;2023-08-21T09:09:41;8.07;;;6.80;;
12625;SDS011;6378;42.684;23.372;2023-08-21T09:12:12;7.82;;;7.03;;
12625;SDS011;6378;42.684;23.372;2023-08-21T09:14:42;10.30;;;7.20;;
12625;SDS011;6378;42.684;23.372;2023-08-21T09:17:08;7.35;;;6.57;;
12625;SDS011;6378;42.684;23.372;2023-08-21T09:19:34;13.50;;;7.20;;
12625;SDS011;6378;42.684;23.372;2023-08-21T09:22:15;9.57;;;7.10;;
12625;SDS011;6378;42.684;23.372;2023-08-21T09:27:35;6.65;;;5.72;;
12625;SDS011;6378;42.684;23.372;2023-08-21T09:30:03;8.07;;;7.05;;
12625;SDS011;6378;42.684;23.372;2023-08-21T09:32:29;6.78;;;6.07;;
12625;SDS011;6378;42.684;23.372;2023-08-21T09:34:55;8.95;;;6.40;;
12625;SDS011;6378;42.684;23.372;2023-08-21T09:37:21;6.80;;;5.60;;
12625;SDS011;6378;42.684;23.372;2023-08-21T09:39:54;6.30;;;5.70;;
12625;SDS011;6378;42.684;23.372;2023-08-21T09:42:19;8.18;;;6.60;;
12625;SDS011;6378;42.684;23.372;2023-08-21T09:44:46;9.52;;;6.57;;
12625;SDS011;6378;42.684;23.372;2023-08-21T09:47:15;8.10;;;6.28;;
12625;SDS011;6378;42.684;23.372;2023-08-21T09:49:41;6.72;;;6.03;;
12625;SDS011;6378;42.684;23.372;2023-08-21T09:52:07;8.95;;;6.78;;
12625;SDS011;6378;42.684;23.372;2023-08-21T09:54:35;10.30;;;6.50;;
12625;SDS011;6378;42.684;23.372;2023-08-21T09:57:03;6.80;;;6.10;;
12625;SDS011;6378;42.684;23.372;2023-08-21T09:59:32;9.50;;;6.35;;
12625;SDS011;6378;42.684;23.372;2023-08-21T10:01:58;7.93;;;6.35;;
12625;SDS011;6378;42.684;23.372;2023-08-21T10:04:28;9.27;;;6.70;;
12625;SDS011;6378;42.684;23.372;2023-08-21T10:06:55;9.55;;;6.90;;
12625;SDS011;6378;42.684;23.372;2023-08-21T10:09:22;8.25;;;6.47;;
12625;SDS011;6378;42.684;23.372;2023-08-21T10:11:49;7.88;;;6.00;;
12625;SDS011;6378;42.684;23.372;2023-08-21T10:14:16;8.45;;;5.97;;
12625;SDS011;6378;42.684;23.372;2023-08-21T10:16:41;7.75;;;6.13;;
12625;SDS011;6378;42.684;23.372;2023-08-21T10:19:07;6.97;;;6.28;;
12625;SDS011;6378;42.684;23.372;2023-08-21T10:21:35;7.65;;;6.70;;
12625;SDS011;6378;42.684;23.372;2023-08-21T10:24:02;8.93;;;6.93;;
12625;SDS011;6378;42.684;23.372;2023-08-21T10:26:27;7.68;;;6.65;;
12625;SDS011;6378;42.684;23.372;2023-08-21T10:28:54;8.40;;;6.57;;
12625;SDS011;6378;42.684;23.372;2023-08-21T10:33:53;7.18;;;6.47;;
12625;SDS011;6378;42.684;23.372;2023-08-21T10:39:04;7.53;;;6.50;;
12625;SDS011;6378;42.684;23.372;2023-08-21T10:41:52;7.28;;;6.53;;
12625;SDS011;6378;42.684;23.372;2023-08-21T10:44:45;6.68;;;6.07;;
12625;SDS011;6378;42.684;23.372;2023-08-21T10:47:31;7.10;;;6.10;;
12625;SDS011;6378;42.684;23.372;2023-08-21T10:49:59;8.75;;;5.80;;
12625;SDS011;6378;42.684;23.372;2023-08-21T10:52:27;7.35;;;5.90;;
12625;SDS011;6378;42.684;23.372;2023-08-21T10:54:53;7.20;;;5.90;;
12625;SDS011;6378;42.684;23.372;2023-08-21T10:57:21;6.40;;;5.78;;
12625;SDS011;6378;42.684;23.372;2023-08-21T11:02:16;8.32;;;5.72;;
12625;SDS011;6378;42.684;23.372;2023-08-21T11:04:43;6.63;;;6.03;;
12625;SDS011;6378;42.684;23.372;2023-08-21T11:07:09;6.68;;;5.88;;
12625;SDS011;6378;42.684;23.372;2023-08-21T11:09:35;8.40;;;6.13;;
12625;SDS011;6378;42.684;23.372;2023-08-21T11:12:05;7.55;;;5.60;;
12625;SDS011;6378;42.684;23.372;2023-08-21T11:14:35;9.15;;;5.90;;
12625;SDS011;6378;42.684;23.372;2023-08-21T11:17:01;8.90;;;6.20;;
12625;SDS011;6378;42.684;23.372;2023-08-21T11:19:29;7.05;;;6.32;;
12625;SDS011;6378;42.684;23.372;2023-08-21T11:21:55;7.03;;;6.05;;
12625;SDS011;6378;42.684;23.372;2023-08-21T11:24:21;6.75;;;6.05;;
12625;SDS011;6378;42.684;23.372;2023-08-21T11:26:46;6.90;;;5.93;;
12625;SDS011;6378;42.684;23.372;2023-08-21T11:29:12;7.75;;;5.85;;
12625;SDS011;6378;42.684;23.372;2023-08-21T11:31:38;7.03;;;6.03;;
12625;SDS011;6378;42.684;23.372;2023-08-21T11:34:03;6.35;;;5.80;;
12625;SDS011;6378;42.684;23.372;2023-08-21T11:36:29;7.38;;;5.95;;
12625;SDS011;6378;42.684;23.372;2023-08-21T11:39:01;6.57;;;5.57;;
12625;SDS011;6378;42.684;23.372;2023-08-21T11:41:28;7.70;;;6.07;;
12625;SDS011;6378;42.684;23.372;2023-08-21T11:43:56;8.05;;;5.65;;
12625;SDS011;6378;42.684;23.372;2023-08-21T11:46:28;7.03;;;5.95;;
12625;SDS011;6378;42.684;23.372;2023-08-21T11:48:53;5.85;;;5.35;;
12625;SDS011;6378;42.684;23.372;2023-08-21T11:51:18;6.53;;;6.00;;
12625;SDS011;6378;42.684;23.372;2023-08-21T11:53:44;6.30;;;5.53;;
12625;SDS011;6378;42.684;23.372;2023-08-21T11:56:13;6.18;;;5.10;;
12625;SDS011;6378;42.684;23.372;2023-08-21T11:58:41;8.27;;;5.80;;
12625;SDS011;6378;42.684;23.372;2023-08-21T12:01:07;7.03;;;5.47;;
12625;SDS011;6378;42.684;23.372;2023-08-21T12:03:38;6.18;;;5.68;;
12625;SDS011;6378;42.684;23.372;2023-08-21T12:06:08;9.57;;;6.13;;
12625;SDS011;6378;42.684;23.372;2023-08-21T12:08:35;7.65;;;5.80;;
12625;SDS011;6378;42.684;23.372;2023-08-21T12:11:00;6.43;;;5.72;;
12625;SDS011;6378;42.684;23.372;2023-08-21T12:13:26;9.23;;;5.28;;
12625;SDS011;6378;42.684;23.372;2023-08-21T12:15:53;6.15;;;5.53;;
12625;SDS011;6378;42.684;23.372;2023-08-21T12:18:19;6.22;;;5.60;;
12625;SDS011;6378;42.684;23.372;2023-08-21T12:20:44;7.60;;;6.18;;
12625;SDS011;6378;42.684;23.372;2023-08-21T12:23:10;6.55;;;5.95;;
12625;SDS011;6378;42.684;23.372;2023-08-21T12:25:35;7.63;;;5.70;;
12625;SDS011;6378;42.684;23.372;2023-08-21T12:28:01;8.73;;;5.85;;
12625;SDS011;6378;42.684;23.372;2023-08-21T12:30:26;6.07;;;5.47;;
12625;SDS011;6378;42.684;23.372;2023-08-21T12:32:52;6.63;;;6.03;;
12625;SDS011;6378;42.684;23.372;2023-08-21T12:35:17;8.02;;;5.43;;
12625;SDS011;6378;42.684;23.372;2023-08-21T12:37:43;6.10;;;5.50;;
12625;SDS011;6378;42.684;23.372;2023-08-21T12:40:08;6.90;;;5.75;;
12625;SDS011;6378;42.684;23.372;2023-08-21T12:42:34;6.50;;;5.15;;
12625;SDS011;6378;42.684;23.372;2023-08-21T12:44:59;7.65;;;5.57;;
12625;SDS011;6378;42.684;23.372;2023-08-21T12:47:25;6.43;;;5.82;;
12625;SDS011;6378;42.684;23.372;2023-08-21T12:49:50;7.80;;;5.55;;
12625;SDS011;6378;42.684;23.372;2023-08-21T12:52:16;6.88;;;5.60;;
12625;SDS011;6378;42.684;23.372;2023-08-21T12:54:41;6.47;;;5.75;;
12625;SDS011;6378;42.684;23.372;2023-08-21T12:57:08;7.28;;;5.93;;
12625;SDS011;6378;42.684;23.372;2023-08-21T12:59:34;7.03;;;5.43;;
12625;SDS011;6378;42.684;23.372;2023-08-21T13:02:00;6.60;;;5.95;;
12625;SDS011;6378;42.684;23.372;2023-08-21T13:04:26;5.65;;;5.22;;
12625;SDS011;6378;42.684;23.372;2023-08-21T13:06:51;6.50;;;5.82;;
12625;SDS011;6378;42.684;23.372;2023-08-21T13:09:17;9.35;;;5.85;;
12625;SDS011;6378;42.684;23.372;2023-08-21T13:11:42;8.00;;;6.32;;
12625;SDS011;6378;42.684;23.372;2023-08-21T13:14:08;6.97;;;6.28;;
12625;SDS011;6378;42.684;23.372;2023-08-21T13:16:33;6.47;;;5.88;;
12625;SDS011;6378;42.684;23.372;2023-08-21T13:18:59;7.00;;;6.05;;
12625;SDS011;6378;42.684;23.372;2023-08-21T13:21:24;7.53;;;5.90;;
12625;SDS011;6378;42.684;23.372;2023-08-21T13:23:49;6.50;;;5.70;;
12625;SDS011;6378;42.684;23.372;2023-08-21T13:26:15;7.45;;;5.55;;
12625;SDS011;6378;42.684;23.372;2023-08-21T13:28:41;6.57;;;5.97;;
12625;SDS011;6378;42.684;23.372;2023-08-21T13:31:06;6.20;;;5.60;;
12625;SDS011;6378;42.684;23.372;2023-08-21T13:33:44;6.40;;;5.53;;
12625;SDS011;6378;42.684;23.372;2023-08-21T13:36:10;6.93;;;5.70;;
12625;SDS011;6378;42.684;23.372;2023-08-21T13:38:35;7.75;;;6.47;;
12625;SDS011;6378;42.684;23.372;2023-08-21T13:41:00;7.97;;;6.00;;
12625;SDS011;6378;42.684;23.372;2023-08-21T13:43:27;6.20;;;5.68;;
12625;SDS011;6378;42.684;23.372;2023-08-21T13:45:52;9.55;;;6.78;;
12625;SDS011;6378;42.684;23.372;2023-08-21T13:48:17;8.02;;;6.07;;
12625;SDS011;6378;42.684;23.372;2023-08-21T13:50:43;6.80;;;6.10;;
12625;SDS011;6378;42.684;23.372;2023-08-21T13:53:08;8.73;;;6.30;;
12625;SDS011;6378;42.684;23.372;2023-08-21T13:55:34;8.77;;;6.00;;
12625;SDS011;6378;42.684;23.372;2023-08-21T13:57:59;6.65;;;5.88;;
12625;SDS011;6378;42.684;23.372;2023-08-21T14:00:25;7.22;;;5.65;;
12625;SDS011;6378;42.684;23.372;2023-08-21T14:02:50;9.43;;;6.18;;
12625;SDS011;6378;42.684;23.372;2023-08-21T14:05:15;7.13;;;5.90;;
12625;SDS011;6378;42.684;23.372;2023-08-21T14:07:41;7.43;;;6.43;;
12625;SDS011;6378;42.684;23.372;2023-08-21T14:10:07;7.03;;;6.10;;
12625;SDS011;6378;42.684;23.372;2023-08-21T14:12:33;7.18;;;6.00;;
12625;SDS011;6378;42.684;23.372;2023-08-21T14:14:59;5.95;;;5.45;;
12625;SDS011;6378;42.684;23.372;2023-08-21T14:17:25;8.55;;;6.50;;
12625;SDS011;6378;42.684;23.372;2023-08-21T14:19:50;8.07;;;6.13;;
12625;SDS011;6378;42.684;23.372;2023-08-21T14:22:16;8.88;;;6.50;;
12625;SDS011;6378;42.684;23.372;2023-08-21T14:24:41;7.20;;;6.50;;
12625;SDS011;6378;42.684;23.372;2023-08-21T14:27:07;8.30;;;6.13;;
12625;SDS011;6378;42.684;23.372;2023-08-21T14:29:32;6.90;;;6.10;;
12625;SDS011;6378;42.684;23.372;2023-08-21T14:31:58;8.18;;;6.20;;
12625;SDS011;6378;42.684;23.372;2023-08-21T14:34:25;8.02;;;6.10;;
12625;SDS011;6378;42.684;23.372;2023-08-21T14:36:50;6.90;;;6.25;;
12625;SDS011;6378;42.684;23.372;2023-08-21T14:39:16;6.85;;;6.15;;
12625;SDS011;6378;42.684;23.372;2023-08-21T14:41:42;8.25;;;6.70;;
12625;SDS011;6378;42.684;23.372;2023-08-21T14:44:08;20.58;;;18.70;;
12625;SDS011;6378;42.684;23.372;2023-08-21T14:46:34;8.75;;;7.70;;